CheckWX is a tool to help pilots better visualize weather data.  It is not intended as a substitute for an official pre-flight weather briefing.

09:28:20 UTC

HCMH METAR
Egal International Airport
Hargeisa
Current

28 mins ago

HCMH 200900Z 02008KT 9999 BKN025 22/17 Q1020
Observed
Feb-20 @ 09:00 UTC
Wind
  • 020° at 8 KTS
Visibility
10,000+ meters
Flight Rules
MVFR
Cloud Levels
  • Broken at 2,500' AGL
Temperature
22°C / 72°F
Dewpoint
17°C / 63°F
Humidity
73%
Altimeter
30.12" Hg
Pressure
1019.92 hPa
Previous

1 hour ago

HCMH 200800Z 05010KT 9999 BKN020 21/17 Q1021
Observed
Feb-20 @ 08:00 UTC
Wind
  • 050° at 10 KTS
Visibility
10,000+ meters
Flight Rules
MVFR
Cloud Levels
  • Broken at 2,000' AGL
Temperature
21°C / 70°F
Dewpoint
17°C / 63°F
Humidity
78%
Altimeter
30.15" Hg
Pressure
1020.92 hPa
Previous

3 hours ago

HCMH 200600Z 06011KT 9999 BKN020 18/16 Q1021
Observed
Feb-20 @ 06:00 UTC
Wind
  • 060° at 11 KTS
Visibility
10,000+ meters
Flight Rules
MVFR
Cloud Levels
  • Broken at 2,000' AGL
Temperature
18°C / 64°F
Dewpoint
16°C / 61°F
Humidity
88%
Altimeter
30.15" Hg
Pressure
1020.92 hPa